Pittman, Mississippi
Current Conditions -  °F | °C
As of 4:53 PM on Thursday 27 Nov 2014 (Local Time) from KMCB Reporting Station
Clear Clear  
Wind Chill: 53°   Ceiling: Unl
Heat Index: 53°   Visibility: 10mi
Dew Point: 28°   Wind: 6mph
Humidity: 38%   Direction: 360°N
Pressure: 30.42"   Gusts: NA
Location:  31.274°N, 89.9542°W
Report Text: KMCB 272253Z AUTO 36005KT 10SM CLR 12/M02 A3042 RMK AO2 SLP301 T01171022
Loading
Personal Weather Stations






























Interactive Weather Map New forecast layout! Learn more

10-Day Weather Forecast

Advertisements
Track Severe Weather on mobile